Last 30 Days

Squaw-Siberia 8700'

Daily Data | America/Los_Angeles
as of 8/12/20 1:36 PM PDT
Date Daily Max Temp (°F) Max Temp Time Daily Min Temp (°F) Min Temp Time Wind Spd (mph) Daily Max Wind (mph) Max Wind Time Max Wind Dir (°) Wet Bulb (°F) WetB Hrs <28F (hrs)
8/11/20 66.9 1337 52.6 2330 0.0 0.1 2014 SSE | 162 47.1 0.0
8/10/20 75.8 1320 54.1 1624 0.0 0.1 1349 SSE | 161 48.5 0.0
8/9/20 75.8 1403 56.5 0557 0.0 0.1 1724 SSE | 163 50.5 0.0
8/8/20 72.9 1410 52.5 0545 0.0 0.1 1743 SSE | 162 50.5 0.0
8/7/20 68.3 1359 47.2 0608 0.0 0.1 0121 SSE | 159 47.2 0.0
8/6/20 63.2 1504 47.1 0601 0.0 0.1 1323 SSE | 160 42.6 0.0
8/5/20 64.3 1348 48.6 2300 0.0 0.1 0043 SSE | 160 43.4 0.0
8/4/20 69.0 1625 52.8 2359 0.0 0.1 1930 SSE | 159 45.4 0.0
8/3/20 68.0 1400 54.0 0043 0.0 0.1 1323 SSE | 168 42.2 0.0
8/2/20 68.3 1554 53.7 2237 0.0 0.1 1418 SSE | 162 42.1 0.0
8/1/20 72.3 1631 55.0 0308 0.0 0.1 1731 SSE | 162 43.7 0.0
7/31/20 72.2 1543 57.0 2320 0.0 0.1 1914 SSE | 158 43.9 0.0
7/30/20 69.9 1451 54.9 0606 0.0 0.1 2018 SSE | 166 47.0 0.0
7/29/20 70.5 1527 54.5 0551 0.0 0.1 1813 SSE | 163 45.9 0.0
7/28/20 70.7 1548 55.3 2203 0.0 0.1 1739 SSE | 158 49.5 0.0
7/27/20 69.6 1208 54.0 0110 0.0 0.1 1904 SSE | 161 48.5 0.0
7/26/20 73.0 1402 54.9 2351 0.0 0.1 0312 SSE | 158 47.4 0.0
7/25/20 69.0 1219 54.1 0312 0.0 0.1 2000 SSE | 158 48.9 0.0
7/24/20 68.2 1435 50.6 0338 0.0 0.1 1957 SSE | 160 47.4 0.0
7/23/20 65.1 1607 48.7 0553 0.0 0.1 2252 SSE | 158 47.7 0.0
7/22/20 66.0 1510 50.3 2159 0.0 0.1 0724 SSE | 161 49.2 0.0
7/21/20 74.4 1349 58.8 2030 0.0 0.1 1112 SSE | 158 50.6 0.0
7/20/20 75.0 1446 59.0 2353 0.0 0.1 2214 SSE | 157 51.5 0.0
7/19/20 75.4 1238 58.3 0500 0.0 0.1 0504 SSE | 161 50.6 0.0
7/18/20 73.2 1547 57.4 0440 0.0 0.1 0909 SSE | 159 49.4 0.0
7/17/20 71.9 1453 57.3 0502 0.0 0.1 1129 SSE | 163 49.6 0.0
7/16/20 77.4 1259 60.6 0518 0.0 0.1 0408 SSE | 157 51.0 0.0
7/15/20 76.6 1608 54.9 0515 0.0 0.1 1832 SSE | 162 50.4 0.0
7/14/20 71.3 1549 53.4 0208 0.0 0.1 0415 SSE | 162 48.5 0.0
7/13/20 67.6 1518 54.4 0526 0.0 0.1 1908 SSE | 159 45.6 0.0
Max 77.4 - 60.6 - 0.0 0.1 - - 51.5 0.0
Avg - - - - 0.0 - - - 47.5 -
Min 63.2 - 47.1 - 0.0 0.1 - - 42.1 0.0